Time;durP1;ratioP1;P1;durP2;ratioP2;P2;SDS_P1;SDS_P2;PMS_P1;PMS_P2;Temp;Humidity;BMP_temperature;BMP_pressure;BME280_temperature;BME280_humidity;BME280_pressure;Samples;Min_cycle;Max_cycle;Signal;HPM_P1;HPM_P2
2022/04/11 00:01:41;;;;;;;;;;;;;;;;;;21006541;28;20011;-65
2022/04/11 00:11:43;;;;;;;;;;;;;;;;;;21004434;28;19927;-66
2022/04/11 00:21:44;;;;;;;;;;;;;;;;;;21003694;28;19927;-66
2022/04/11 00:31:46;;;;;;;;;;;;;;;;;;21002807;28;20484;-66
2022/04/11 00:41:48;;;;;;;;;;;;;;;;;;21002629;28;19929;-66
2022/04/11 00:51:50;;;;;;;;;;;;;;;;;;21001418;28;19924;-66
2022/04/11 01:01:51;;;;;;;;;;;;;;;;;;20981480;28;20015;-66
2022/04/11 01:11:53;;;;;;;;;;;;;;;;;;21000459;28;19927;-66
2022/04/11 01:21:55;;;;;;;;;;;;;;;;;;20999465;28;19928;-66
2022/04/11 01:31:57;;;;;;;;;;;;;;;;;;20998257;28;20412;-66
2022/04/11 01:42:02;;;;;;;;;;;;;;;;;;20997261;28;19927;-66
2022/04/11 01:52:06;;;;;;;;;;;;;;;;;;20995978;28;19920;-65
2022/04/11 02:02:12;;;;;;;;;;;;;;;;;;20995600;28;20019;-66
2022/04/11 02:12:16;;;;;;;;;;;;;;;;;;20994827;28;19929;-68
2022/04/11 02:22:20;;;;;;;;;;;;;;;;;;20977906;28;19920;-69
2022/04/11 02:32:24;;;;;;;;;;;;;;;;;;20993748;28;20451;-66
2022/04/11 02:42:29;;;;;;;;;;;;;;;;;;20994229;28;20350;-66
2022/04/11 02:52:32;;;;;;;;;;;;;;;;;;20993529;28;19954;-68
2022/04/11 03:02:34;;;;;;;;;;;;;;;;;;20992514;28;19920;-68
2022/04/11 03:12:36;;;;;;;;;;;;;;;;;;20993542;28;19920;-68
2022/04/11 03:22:37;;;;;;;;;;;;;;;;;;20998262;28;20290;-66
2022/04/11 03:32:39;;;;;;;;;;;;;;;;;;21006585;28;19920;-68
2022/04/11 03:42:41;;;;;;;;;;;;;;;;;;20988072;28;19928;-68
2022/04/11 03:52:43;;;;;;;;;;;;;;;;;;21005002;28;19973;-68
2022/04/11 04:02:45;;;;;;;;;;;;;;;;;;21005743;28;19928;-68
2022/04/11 04:12:46;;;;;;;;;;;;;;;;;;21004939;28;20388;-67
2022/04/11 04:22:48;;;;;;;;;;;;;;;;;;21002824;28;20010;-66
2022/04/11 04:32:52;;;;;;;;;;;;;;;;;;21002983;28;20294;-66
2022/04/11 04:42:54;;;;;;;;;;;;;;;;;;21001720;28;19928;-65
2022/04/11 04:52:56;;;;;;;;;;;;;;;;;;21001401;28;20019;-66
2022/04/11 05:02:58;;;;;;;;;;;;;;;;;;20999870;28;19926;-66
2022/04/11 05:13:00;;;;;;;;;;;;;;;;;;20999218;28;20407;-66
2022/04/11 05:23:02;;;;;;;;;;;;;;;;;;20998271;28;19966;-67
2022/04/11 05:33:08;;;;;;;;;;;;;;;;;;20997274;28;19921;-68
2022/04/11 05:43:12;;;;;;;;;;;;;;;;;;20996296;28;19924;-66
2022/04/11 05:53:14;;;;;;;;;;;;;;;;;;20997121;28;19985;-66
2022/04/11 06:03:16;;;;;;;;;;;;;;;;;;20995346;28;19924;-67
2022/04/11 06:13:17;;;;;;;;;;;;;;;;;;20995768;28;20045;-67
2022/04/11 06:23:19;;;;;;;;;;;;;;;;;;20995042;28;20340;-67
2022/04/11 06:33:21;;;;;;;;;;;;;;;;;;20994216;28;19921;-66
2022/04/11 06:43:23;;;;;;;;;;;;;;;;;;20993541;28;19921;-67
2022/04/11 06:53:25;;;;;;;;;;;;;;;;;;20995543;28;20346;-66
2022/04/11 07:03:27;;;;;;;;;;;;;;;;;;21010111;28;19963;-67
2022/04/11 07:13:29;;;;;;;;;;;;;;;;;;21009039;28;19975;-65
2022/04/11 07:23:30;;;;;;;;;;;;;;;;;;21007937;28;19920;-69
2022/04/11 07:33:32;;;;;;;;;;;;;;;;;;21007655;28;19920;-67
2022/04/11 07:43:34;;;;;;;;;;;;;;;;;;21006477;28;19967;-66
2022/04/11 07:53:36;;;;;;;;;;;;;;;;;;21005873;28;20006;-66
2022/04/11 08:03:38;;;;;;;;;;;;;;;;;;21005086;28;19927;-66
2022/04/11 08:13:39;;;;;;;;;;;;;;;;;;21003626;28;20363;-67
2022/04/11 08:23:41;;;;;;;;;;;;;;;;;;21003278;28;19920;-68
2022/04/11 08:33:43;;;;;;;;;;;;;;;;;;21003413;28;20297;-68
2022/04/11 08:43:44;;;;;;;;;;;;;;;;;;21001322;28;20378;-68
2022/04/11 08:53:46;;;;;;;;;;;;;;;;;;21000520;28;19928;-68
2022/04/11 09:03:47;;;;;;;;;;;;;;;;;;20999517;28;20024;-69
2022/04/11 09:13:49;;;;;;;;;;;;;;;;;;20980817;28;20054;-68
2022/04/11 09:23:51;;;;;;;;;;;;;;;;;;20998305;28;19920;-69
2022/04/11 09:33:53;;;;;;;;;;;;;;;;;;20997750;28;19921;-67
2022/04/11 09:43:55;;;;;;;;;;;;;;;;;;20996675;28;19942;-69
2022/04/11 09:53:57;;;;;;;;;;;;;;;;;;20997627;28;19921;-69
2022/04/11 10:03:59;;;;;;;;;;;;;;;;;;20977149;28;19935;-69
2022/04/11 10:14:01;;;;;;;;;;;;;;;;;;20994923;28;20052;-69
2022/04/11 10:24:04;;;;;;;;;;;;;;;;;;20994971;28;20006;-68
2022/04/11 10:34:06;;;;;;;;;;;;;;;;;;20963233;28;19964;-69
2022/04/11 10:44:08;;;;;;;;;;;;;;;;;;20911773;28;19920;-74
2022/04/11 10:54:10;;;;;;;;;;;;;;;;;;20946352;28;19947;-74
2022/04/11 11:04:12;;;;;;;;;;;;;;;;;;20984364;28;20306;-70
2022/04/11 11:14:14;;;;;;;;;;;;;;;;;;20993141;28;19920;-66
2022/04/11 11:24:18;;;;;;;;;;;;;;;;;;20993054;28;20014;-71
2022/04/11 11:34:20;;;;;;;;;;;;;;;;;;20991496;28;20022;-64
2022/04/11 11:44:22;;;;;;;;;;;;;;;;;;20981000;28;19920;-66
2022/04/11 11:54:24;;;;;;;;;;;;;;;;;;21006284;28;19920;-69
2022/04/11 12:04:25;;;;;;;;;;;;;;;;;;21005716;28;19963;-70
2022/04/11 12:14:27;;;;;;;;;;;;;;;;;;21005519;28;20312;-67
2022/04/11 12:24:29;;;;;;;;;;;;;;;;;;21003905;28;20015;-71
2022/04/11 12:34:31;;;;;;;;;;;;;;;;;;21002661;28;20010;-70
2022/04/11 12:44:34;;;;;;;;;;;;;;;;;;20983183;28;19973;-65
2022/04/11 12:54:36;;;;;;;;;;;;;;;;;;21000639;28;19974;-70
2022/04/11 13:04:38;;;;;;;;;;;;;;;;;;21000631;28;20374;-72
2022/04/11 13:14:40;;;;;;;;;;;;;;;;;;20999599;28;19985;-64
2022/04/11 13:24:42;;;;;;;;;;;;;;;;;;20998387;28;19963;-71
2022/04/11 13:34:44;;;;;;;;;;;;;;;;;;20997455;28;19924;-73
2022/04/11 13:44:46;;;;;;;;;;;;;;;;;;20978184;28;20420;-70
2022/04/11 13:54:48;;;;;;;;;;;;;;;;;;20997613;28;19920;-66
2022/04/11 14:04:50;;;;;;;;;;;;;;;;;;20994001;28;19920;-69
2022/04/11 14:14:53;;;;;;;;;;;;;;;;;;20995054;28;19940;-71
2022/04/11 14:24:55;;;;;;;;;;;;;;;;;;20995406;28;20375;-72
2022/04/11 14:34:57;;;;;;;;;;;;;;;;;;20993964;28;20393;-70
2022/04/11 14:44:59;;;;;;;;;;;;;;;;;;20993949;28;19924;-67
2022/04/11 14:55:01;;;;;;;;;;;;;;;;;;20975452;28;20374;-69
2022/04/11 15:05:03;;;;;;;;;;;;;;;;;;20996458;28;20010;-67
2022/04/11 15:15:05;;;;;;;;;;;;;;;;;;20996766;28;19927;-66
2022/04/11 15:25:07;;;;;;;;;;;;;;;;;;21007898;28;19920;-67
2022/04/11 15:35:09;;;;;;;;;;;;;;;;;;21022359;28;20370;-70
2022/04/11 15:45:11;;;;;;;;;;;;;;;;;;21006402;28;20275;-67
2022/04/11 15:55:12;;;;;;;;;;;;;;;;;;21005527;28;19926;-67
2022/04/11 16:05:14;;;;;;;;;;;;;;;;;;21005073;28;20329;-70
2022/04/11 16:15:16;;;;;;;;;;;;;;;;;;21004377;28;20003;-69
2022/04/11 16:25:18;;;;;;;;;;;;;;;;;;21002330;28;19924;-72
2022/04/11 16:35:20;;;;;;;;;;;;;;;;;;21002046;28;19932;-69
2022/04/11 16:45:22;;;;;;;;;;;;;;;;;;20916990;28;19968;-66
2022/04/11 16:55:24;;;;;;;;;;;;;;;;;;20917517;28;20283;-72
2022/04/11 17:05:26;;;;;;;;;;;;;;;;;;20917029;28;19932;-71
2022/04/11 17:25:49;;;;;;;;;;;;;;;;;;20915554;28;19998;-72
2022/04/11 17:35:51;;;;;;;;;;;;;;;;;;20914299;28;19933;-71
2022/04/11 17:46:00;;;;;;;;;;;;;;;;;;20984419;28;20015;-70
2022/04/11 17:56:02;;;;;;;;;;;;;;;;;;20997522;28;19920;-65
2022/04/11 18:06:04;;;;;;;;;;;;;;;;;;20996961;28;20405;-69
2022/04/11 18:16:06;;;;;;;;;;;;;;;;;;20994911;28;19927;-68
2022/04/11 18:26:08;;;;;;;;;;;;;;;;;;20994869;28;19926;-68
2022/04/11 18:36:11;;;;;;;;;;;;;;;;;;20993513;28;19924;-70
2022/04/11 18:46:14;;;;;;;;;;;;;;;;;;20993605;28;19928;-70
2022/04/11 18:56:18;;;;;;;;;;;;;;;;;;21007856;28;20378;-65
2022/04/11 19:06:20;;;;;;;;;;;;;;;;;;21009677;28;19925;-72
2022/04/11 19:16:22;;;;;;;;;;;;;;;;;;21008670;28;19958;-72
2022/04/11 19:26:24;;;;;;;;;;;;;;;;;;20989769;28;19921;-70
2022/04/11 19:36:26;;;;;;;;;;;;;;;;;;21007255;28;19978;-65
2022/04/11 19:46:28;;;;;;;;;;;;;;;;;;20987702;28;19928;-71
2022/04/11 19:56:30;;;;;;;;;;;;;;;;;;21005232;28;19921;-71
2022/04/11 20:06:31;;;;;;;;;;;;;;;;;;21003995;28;19921;-69
2022/04/11 20:16:33;;;;;;;;;;;;;;;;;;21003902;28;19928;-70
2022/04/11 20:26:37;;;;;;;;;;;;;;;;;;21003517;28;19920;-71
2022/04/11 20:36:38;;;;;;;;;;;;;;;;;;21003148;28;19920;-66
2022/04/11 20:46:40;;;;;;;;;;;;;;;;;;21002146;28;19921;-70
2022/04/11 20:56:42;;;;;;;;;;;;;;;;;;21000611;28;19943;-67
2022/04/11 21:06:44;;;;;;;;;;;;;;;;;;20981868;28;20004;-71
2022/04/11 21:16:45;;;;;;;;;;;;;;;;;;20999889;28;20014;-68
2022/04/11 21:26:47;;;;;;;;;;;;;;;;;;20999148;28;19927;-65
2022/04/11 21:36:49;;;;;;;;;;;;;;;;;;20998284;28;20006;-66
2022/04/11 21:46:51;;;;;;;;;;;;;;;;;;20998118;28;20374;-68
2022/04/11 21:56:53;;;;;;;;;;;;;;;;;;20999315;28;19928;-70
2022/04/11 22:06:55;;;;;;;;;;;;;;;;;;20996191;28;19928;-66
2022/04/11 22:16:58;;;;;;;;;;;;;;;;;;20997839;28;19920;-68
2022/04/11 22:27:00;;;;;;;;;;;;;;;;;;21000857;28;19927;-72
2022/04/11 22:37:03;;;;;;;;;;;;;;;;;;21000678;28;19920;-67
2022/04/11 22:47:04;;;;;;;;;;;;;;;;;;20994467;28;19932;-69
2022/04/11 22:57:06;;;;;;;;;;;;;;;;;;20995536;28;19926;-70
2022/04/11 23:07:08;;;;;;;;;;;;;;;;;;20993981;28;20358;-70
2022/04/11 23:17:10;;;;;;;;;;;;;;;;;;20993459;28;19920;-65
2022/04/11 23:27:14;;;;;;;;;;;;;;;;;;20994589;28;19927;-68
2022/04/11 23:37:16;;;;;;;;;;;;;;;;;;20995991;28;19971;-69
2022/04/11 23:47:18;;;;;;;;;;;;;;;;;;21007008;28;20324;-70
2022/04/11 23:57:19;;;;;;;;;;;;;;;;;;21006453;28;19927;-70
